Time;durP1;ratioP1;P1;durP2;ratioP2;P2;SDS_P1;SDS_P2;PMS_P1;PMS_P2;Temp;Humidity;BMP_temperature;BMP_pressure;BME280_temperature;BME280_humidity;BME280_pressure;Samples;Min_cycle;Max_cycle;Signal;HPM_P1;HPM_P2
2021/09/18 00:00:26;;;;;;;5.10;4.70;;;;;;;9.08;100.00;98010.56;4998854;28;20211;-65
2021/09/18 00:02:54;;;;;;;5.70;5.10;;;;;;;9.05;100.00;98016.16;5000080;28;20407;-66
2021/09/18 00:05:22;;;;;;;5.67;5.27;;;;;;;9.14;100.00;98009.94;5001172;28;20266;-66
2021/09/18 00:07:50;;;;;;;6.07;5.57;;;;;;;9.15;100.00;98010.78;4989896;28;20427;-66
2021/09/18 00:10:20;;;;;;;5.93;5.43;;;;;;;9.19;100.00;98012.94;5003729;28;20212;-66
2021/09/18 00:12:48;;;;;;;4.93;4.63;;;;;;;9.23;100.00;98008.19;4962015;28;22449;-66
2021/09/18 00:15:16;;;;;;;8.87;6.20;;;;;;;9.24;100.00;98008.03;4995880;28;20405;-66
2021/09/18 00:17:44;;;;;;;6.13;5.73;;;;;;;9.24;100.00;98002.75;4996684;28;20236;-66
2021/09/18 00:20:12;;;;;;;6.37;5.87;;;;;;;9.20;100.00;97996.09;4997317;28;20295;-66
2021/09/18 00:22:40;;;;;;;6.30;5.80;;;;;;;9.20;100.00;98006.69;4986992;28;20588;-65
2021/09/18 00:25:09;;;;;;;5.63;5.23;;;;;;;9.24;100.00;97994.81;4995728;28;20209;-66
2021/09/18 00:27:38;;;;;;;5.47;5.10;;;;;;;9.30;100.00;98000.47;4992617;28;20225;-65
2021/09/18 00:30:07;;;;;;;6.47;5.97;;;;;;;9.24;100.00;98001.94;4968020;28;20212;-66
2021/09/18 00:32:35;;;;;;;6.00;5.47;;;;;;;9.23;100.00;97997.63;4997736;28;20212;-65
2021/09/18 00:35:06;;;;;;;6.20;5.70;;;;;;;9.27;100.00;97996.31;4958455;28;20217;-65
2021/09/18 00:37:39;;;;;;;6.23;5.67;;;;;;;9.31;100.00;97992.38;4994100;28;20332;-65
2021/09/18 00:40:08;;;;;;;5.57;5.17;;;;;;;9.33;100.00;97993.06;4983196;28;20216;-65
2021/09/18 00:42:37;;;;;;;6.60;6.10;;;;;;;9.36;100.00;97994.56;4996349;28;20220;-66
2021/09/18 00:45:07;;;;;;;5.87;5.33;;;;;;;9.35;100.00;97991.06;4984813;28;20220;-65
2021/09/18 00:47:35;;;;;;;5.63;5.23;;;;;;;9.42;100.00;97993.94;4999240;28;20316;-66
2021/09/18 00:50:04;;;;;;;5.80;5.30;;;;;;;9.38;100.00;98001.34;4960771;28;20591;-65
2021/09/18 00:52:32;;;;;;;5.60;5.20;;;;;;;9.37;100.00;97996.22;4994423;28;20276;-66
2021/09/18 00:55:02;;;;;;;5.87;5.47;;;;;;;9.41;100.00;97998.38;4994405;28;20239;-65
2021/09/18 00:57:31;;;;;;;5.83;5.33;;;;;;;9.43;100.00;97998.25;4998014;28;20208;-65
2021/09/18 01:00:03;;;;;;;5.90;5.50;;;;;;;9.39;100.00;98000.34;4990912;28;20661;-65
2021/09/18 01:02:31;;;;;;;5.77;5.30;;;;;;;9.49;100.00;98013.47;4995969;28;20328;-66
2021/09/18 01:05:01;;;;;;;6.47;5.97;;;;;;;9.45;100.00;98006.00;4956017;28;20221;-65
2021/09/18 01:07:28;;;;;;;5.73;5.23;;;;;;;9.40;100.00;98017.88;4994640;28;20209;-65
2021/09/18 01:09:57;;;;;;;5.90;5.40;;;;;;;9.44;100.00;98014.91;4995149;28;20727;-65
2021/09/18 01:12:25;;;;;;;6.30;5.80;;;;;;;9.45;100.00;98013.94;4996792;28;20201;-67
2021/09/18 01:14:53;;;;;;;6.70;6.07;;;;;;;9.50;100.00;98020.44;4986632;28;20309;-65
2021/09/18 01:17:22;;;;;;;6.27;5.67;;;;;;;9.48;100.00;98011.81;4984844;28;20215;-66
2021/09/18 01:19:50;;;;;;;7.10;6.60;;;;;;;9.46;100.00;98011.16;4959367;28;20653;-65
2021/09/18 01:22:19;;;;;;;5.83;5.33;;;;;;;9.52;100.00;98010.50;4988203;28;20298;-67
2021/09/18 01:24:48;;;;;;;7.90;6.40;;;;;;;9.58;100.00;98011.72;4997035;28;20205;-65
2021/09/18 01:27:16;;;;;;;5.47;5.07;;;;;;;9.60;100.00;98003.59;4985892;28;20743;-66
2021/09/18 01:29:44;;;;;;;6.20;5.70;;;;;;;9.62;100.00;98004.28;4995366;28;20216;-66
2021/09/18 01:32:17;;;;;;;6.03;5.57;;;;;;;9.62;100.00;98014.84;4987501;28;20735;-66
2021/09/18 01:34:45;;;;;;;5.83;5.33;;;;;;;9.59;100.00;98001.94;4994158;28;20208;-66
2021/09/18 01:37:13;;;;;;;5.80;5.40;;;;;;;9.69;100.00;98005.31;4960437;28;20636;-66
2021/09/18 01:39:41;;;;;;;6.40;5.80;;;;;;;9.66;100.00;98001.16;4999457;28;20204;-65
2021/09/18 01:42:10;;;;;;;5.57;5.17;;;;;;;9.68;100.00;98003.66;4992567;28;20220;-65
2021/09/18 01:44:38;;;;;;;6.43;6.03;;;;;;;9.75;100.00;98003.84;5003300;28;20204;-66
2021/09/18 01:47:06;;;;;;;5.00;4.70;;;;;;;9.77;100.00;98008.00;4986946;28;20208;-65
2021/09/18 01:49:34;;;;;;;5.93;5.50;;;;;;;9.74;100.00;98003.03;4991607;28;20221;-66
2021/09/18 01:52:07;;;;;;;5.80;5.40;;;;;;;9.68;100.00;97993.91;4959182;28;20216;-65
2021/09/18 01:54:37;;;;;;;6.03;5.53;;;;;;;9.74;100.00;97995.09;4993095;28;20244;-66
2021/09/18 01:57:07;;;;;;;5.63;5.23;;;;;;;9.70;100.00;97996.41;4995382;28;20639;-65
2021/09/18 01:59:36;;;;;;;6.23;5.63;;;;;;;9.72;100.00;97993.59;4999519;28;20228;-66
2021/09/18 02:02:04;;;;;;;5.60;5.23;;;;;;;9.85;100.00;97996.63;4990146;28;20232;-65
2021/09/18 02:04:33;;;;;;;6.23;4.90;;;;;;;9.78;100.00;97992.94;4983964;28;20213;-66
2021/09/18 02:07:01;;;;;;;6.47;5.93;;;;;;;9.89;100.00;97982.09;4970631;28;20395;-65
2021/09/18 02:09:29;;;;;;;6.17;5.57;;;;;;;9.89;100.00;97995.31;4989040;28;20231;-65
2021/09/18 02:11:57;;;;;;;5.60;5.23;;;;;;;9.88;100.00;97993.66;4994358;28;20205;-65
2021/09/18 02:14:24;;;;;;;5.37;4.97;;;;;;;9.85;100.00;97994.81;4996223;28;20446;-66
2021/09/18 02:16:54;;;;;;;5.40;5.00;;;;;;;9.92;100.00;97991.50;4996449;28;20600;-66
2021/09/18 02:19:22;;;;;;;6.23;5.80;;;;;;;9.92;100.00;97988.88;4980590;28;20307;-66
2021/09/18 02:21:50;;;;;;;10.30;6.10;;;;;;;9.94;100.00;97986.88;4991084;28;20617;-65
2021/09/18 02:24:18;;;;;;;5.30;4.80;;;;;;;9.87;100.00;97986.72;4970426;28;20341;-67
2021/09/18 02:26:46;;;;;;;5.53;5.03;;;;;;;9.82;100.00;97995.13;4999165;28;20219;-67
2021/09/18 02:29:14;;;;;;;5.20;4.90;;;;;;;9.75;100.00;97999.41;4996603;28;20255;-66
2021/09/18 02:31:42;;;;;;;5.70;5.30;;;;;;;9.86;100.00;98003.59;4996408;28;20212;-67
2021/09/18 02:34:11;;;;;;;5.17;4.77;;;;;;;9.78;100.00;97996.44;4979775;28;20495;-67
2021/09/18 02:36:39;;;;;;;6.37;5.90;;;;;;;9.77;100.00;97989.47;4996244;28;20204;-66
2021/09/18 02:39:07;;;;;;;5.87;5.47;;;;;;;9.79;100.00;97989.31;4956716;28;20239;-65
2021/09/18 02:41:35;;;;;;;6.07;5.47;;;;;;;9.67;100.00;97994.88;5001107;28;20205;-66
2021/09/18 02:44:03;;;;;;;6.07;5.50;;;;;;;9.66;100.00;97992.38;4961522;28;20315;-66
2021/09/18 02:46:31;;;;;;;5.60;5.20;;;;;;;9.61;100.00;97992.88;4989189;28;20209;-66
2021/09/18 02:48:59;;;;;;;6.33;5.93;;;;;;;9.63;100.00;97990.91;4997304;28;20229;-67
2021/09/18 02:51:28;;;;;;;5.77;5.30;;;;;;;9.61;100.00;97989.38;4996140;28;20204;-67
2021/09/18 02:53:58;;;;;;;6.03;5.47;;;;;;;9.56;100.00;97987.25;4995542;28;20212;-67
2021/09/18 02:56:26;;;;;;;5.27;4.93;;;;;;;9.52;100.00;97978.78;4977003;28;20704;-66
2021/09/18 02:58:54;;;;;;;5.37;4.97;;;;;;;9.55;100.00;97982.94;4957728;28;20336;-66
2021/09/18 03:01:22;;;;;;;6.70;6.20;;;;;;;9.56;100.00;97985.41;4992557;28;20212;-67
2021/09/18 03:03:51;;;;;;;5.40;5.00;;;;;;;9.61;100.00;97987.59;4994285;28;20248;-65
2021/09/18 03:06:19;;;;;;;6.30;5.80;;;;;;;9.62;100.00;97983.09;4997829;28;20205;-66
2021/09/18 03:08:48;;;;;;;5.63;5.27;;;;;;;9.61;100.00;97974.34;4994910;28;20600;-65
2021/09/18 03:11:16;;;;;;;5.27;4.87;;;;;;;9.65;100.00;97970.41;4997940;28;20580;-66
2021/09/18 03:13:44;;;;;;;6.37;5.80;;;;;;;9.69;100.00;97981.50;4972279;28;20912;-65
2021/09/18 03:16:12;;;;;;;5.80;5.40;;;;;;;9.71;100.00;97982.19;4992127;28;20491;-67
2021/09/18 03:18:40;;;;;;;6.03;5.43;;;;;;;9.69;100.00;97979.69;5000759;28;20412;-66
2021/09/18 03:21:08;;;;;;;5.70;5.30;;;;;;;9.63;100.00;97980.31;4995502;28;20433;-66
2021/09/18 03:23:36;;;;;;;5.37;4.97;;;;;;;9.65;100.00;97978.34;4997069;28;20232;-65
2021/09/18 03:26:05;;;;;;;5.10;4.80;;;;;;;9.62;100.00;97975.16;4995233;28;20621;-67
2021/09/18 03:28:35;;;;;;;5.90;5.50;;;;;;;9.53;100.00;97969.84;4989824;28;20224;-65
2021/09/18 03:31:03;;;;;;;5.80;5.40;;;;;;;9.57;100.00;97975.66;4974379;28;20851;-66
2021/09/18 03:33:31;;;;;;;5.00;4.70;;;;;;;9.58;100.00;97973.84;4997664;28;20205;-66
2021/09/18 03:35:59;;;;;;;5.43;4.80;;;;;;;9.44;100.00;97975.25;4986175;28;20205;-68
2021/09/18 03:38:27;;;;;;;6.03;5.43;;;;;;;9.36;100.00;97978.69;4982163;28;20616;-67
2021/09/18 03:40:54;;;;;;;5.60;5.20;;;;;;;9.32;100.00;97975.53;4993012;28;20506;-68
2021/09/18 03:43:24;;;;;;;5.87;5.47;;;;;;;9.20;100.00;97974.13;4984593;28;20260;-67
2021/09/18 03:45:52;;;;;;;5.87;5.37;;;;;;;9.20;100.00;97980.25;4961316;28;20209;-66
2021/09/18 03:48:20;;;;;;;6.00;5.60;;;;;;;9.16;100.00;97973.59;4992955;28;20225;-67
2021/09/18 03:50:48;;;;;;;5.43;5.03;;;;;;;9.07;100.00;97964.78;4990934;28;20205;-66
2021/09/18 03:53:16;;;;;;;5.73;5.33;;;;;;;9.03;100.00;97960.78;4996309;28;20205;-68
2021/09/18 03:55:44;;;;;;;6.17;5.53;;;;;;;9.05;100.00;97950.91;4993531;28;20665;-67
2021/09/18 03:58:12;;;;;;;5.03;4.73;;;;;;;9.08;100.00;97960.34;4986758;28;20231;-71
2021/09/18 04:00:41;;;;;;;6.10;5.60;;;;;;;9.07;100.00;97963.97;4980589;28;20208;-67
2021/09/18 04:03:09;;;;;;;6.17;5.67;;;;;;;9.07;100.00;97967.44;4986675;28;20355;-69
2021/09/18 04:05:38;;;;;;;5.70;5.33;;;;;;;9.00;100.00;97965.59;5000140;28;20200;-66
2021/09/18 04:08:07;;;;;;;5.40;5.00;;;;;;;8.98;100.00;97976.28;4998632;28;20560;-69
2021/09/18 04:10:36;;;;;;;6.70;6.10;;;;;;;8.93;100.00;97973.28;4997023;28;20221;-67
2021/09/18 04:13:04;;;;;;;6.50;6.00;;;;;;;8.94;100.00;97973.16;4994863;28;20893;-68
2021/09/18 04:15:32;;;;;;;5.90;5.50;;;;;;;8.82;100.00;97967.28;4985364;28;20353;-67
2021/09/18 04:18:01;;;;;;;6.93;6.47;;;;;;;8.74;100.00;97975.13;4972309;28;20302;-68
2021/09/18 04:20:30;;;;;;;6.67;6.17;;;;;;;8.69;100.00;97972.94;4997462;28;20700;-67
2021/09/18 04:22:58;;;;;;;5.77;5.37;;;;;;;8.64;100.00;97975.22;4992136;28;20897;-68
2021/09/18 04:25:26;;;;;;;5.93;5.43;;;;;;;8.61;100.00;97972.88;4996999;28;20208;-67
2021/09/18 04:27:54;;;;;;;5.83;5.43;;;;;;;8.56;100.00;97971.66;4993534;28;20224;-67
2021/09/18 04:30:22;;;;;;;6.07;5.67;;;;;;;8.47;100.00;97968.09;4983212;28;20209;-68
2021/09/18 04:32:50;;;;;;;6.50;6.10;;;;;;;8.55;100.00;97976.13;4961381;28;20209;-66
2021/09/18 04:35:20;;;;;;;6.43;5.93;;;;;;;8.50;100.00;97973.09;4991825;28;20209;-67
2021/09/18 04:37:47;;;;;;;6.40;5.90;;;;;;;8.39;100.00;97974.94;4995106;28;20795;-66
2021/09/18 04:40:17;;;;;;;5.87;5.37;;;;;;;8.36;100.00;97982.38;4995052;28;20233;-67
2021/09/18 04:42:45;;;;;;;5.33;5.00;;;;;;;8.32;100.00;97981.81;4994205;28;20464;-66
2021/09/18 04:45:13;;;;;;;6.00;5.47;;;;;;;8.30;100.00;97986.44;4985159;28;20284;-67
2021/09/18 04:47:41;;;;;;;5.77;5.37;;;;;;;8.27;100.00;97989.38;4964287;28;20255;-66
2021/09/18 04:50:09;;;;;;;6.13;5.63;;;;;;;8.22;100.00;97997.72;4993848;28;20285;-67
2021/09/18 04:52:38;;;;;;;6.03;5.53;;;;;;;8.19;100.00;97998.03;4947751;28;20221;-68
2021/09/18 04:55:07;;;;;;;6.63;6.10;;;;;;;8.19;100.00;98003.31;4993883;28;20856;-66
2021/09/18 04:57:35;;;;;;;6.37;5.87;;;;;;;8.17;100.00;98002.63;4998181;28;20360;-67
2021/09/18 05:00:04;;;;;;;6.07;5.67;;;;;;;8.20;100.00;98012.88;4987433;28;20651;-66
2021/09/18 05:02:32;;;;;;;6.23;5.73;;;;;;;8.17;100.00;98012.38;4996073;28;20597;-67
2021/09/18 05:05:01;;;;;;;6.70;6.10;;;;;;;8.20;100.00;98004.16;4980643;28;20240;-66
2021/09/18 05:07:28;;;;;;;6.27;5.77;;;;;;;8.21;100.00;98005.81;4966319;28;21135;-66
2021/09/18 05:09:58;;;;;;;5.77;5.37;;;;;;;8.18;100.00;98006.09;4981551;28;20232;-66
2021/09/18 05:12:26;;;;;;;7.13;6.47;;;;;;;8.17;100.00;98013.19;4990498;28;20450;-67
2021/09/18 05:14:54;;;;;;;7.20;6.50;;;;;;;8.16;100.00;98013.34;4980953;28;20213;-68
2021/09/18 05:17:21;;;;;;;6.37;5.87;;;;;;;8.18;100.00;98017.47;4995646;28;20479;-69
2021/09/18 05:19:49;;;;;;;6.10;5.63;;;;;;;8.22;100.00;98018.84;4995857;28;20229;-68
2021/09/18 05:22:17;;;;;;;6.33;5.93;;;;;;;8.25;100.00;98017.72;4985236;28;20205;-69
2021/09/18 05:24:45;;;;;;;6.00;5.53;;;;;;;8.23;100.00;98015.22;4963622;28;20232;-69
2021/09/18 05:27:15;;;;;;;6.40;5.90;;;;;;;8.28;100.00;98012.16;4981083;28;20236;-70
2021/09/18 05:29:44;;;;;;;6.80;6.20;;;;;;;8.39;100.00;98008.47;4994990;28;20209;-70
2021/09/18 05:32:12;;;;;;;6.70;6.20;;;;;;;8.31;100.00;98013.63;4981757;28;20610;-69
2021/09/18 05:34:40;;;;;;;6.73;6.23;;;;;;;8.31;100.00;98005.72;4994507;28;20212;-69
2021/09/18 05:37:08;;;;;;;6.83;6.33;;;;;;;8.33;100.00;98004.59;4989569;28;20209;-69
2021/09/18 05:39:36;;;;;;;7.07;6.57;;;;;;;8.40;100.00;98010.94;4964523;28;20228;-71
2021/09/18 05:42:08;;;;;;;7.00;6.47;;;;;;;8.44;100.00;98022.06;4979898;28;20299;-68
2021/09/18 05:44:37;;;;;;;6.87;6.30;;;;;;;8.45;100.00;98017.59;4993468;28;20229;-69
2021/09/18 05:47:05;;;;;;;5.60;5.23;;;;;;;8.47;100.00;98015.63;4989192;28;20677;-68
2021/09/18 05:49:33;;;;;;;7.03;6.43;;;;;;;8.56;100.00;98019.22;4995536;28;20577;-69
2021/09/18 05:52:01;;;;;;;6.97;6.40;;;;;;;8.61;100.00;98022.22;4999558;28;20243;-68
2021/09/18 05:54:29;;;;;;;7.13;6.50;;;;;;;8.68;100.00;98012.72;4994772;28;20201;-66
2021/09/18 05:56:57;;;;;;;6.10;5.60;;;;;;;8.74;100.00;98017.41;4948815;28;20224;-67
2021/09/18 05:59:25;;;;;;;7.13;6.53;;;;;;;8.81;100.00;98009.69;4989941;28;20229;-67
2021/09/18 06:01:55;;;;;;;6.70;6.17;;;;;;;8.85;100.00;98012.88;4999326;28;20556;-67
2021/09/18 06:04:23;;;;;;;6.30;5.80;;;;;;;8.92;100.00;98020.03;4982358;28;20431;-68
2021/09/18 06:06:51;;;;;;;7.33;6.73;;;;;;;8.98;100.00;98008.00;4999562;28;20492;-68
2021/09/18 06:09:19;;;;;;;6.73;6.07;;;;;;;9.13;100.00;98016.22;4993549;28;20434;-68
2021/09/18 06:11:47;;;;;;;7.23;6.63;;;;;;;9.27;100.00;98009.53;4951776;28;20247;-68
2021/09/18 06:14:15;;;;;;;7.57;6.87;;;;;;;9.45;100.00;98009.50;4989887;28;20384;-69
2021/09/18 06:16:43;;;;;;;7.13;6.53;;;;;;;9.61;100.00;98014.03;4997236;28;20954;-70
2021/09/18 06:19:14;;;;;;;8.17;7.47;;;;;;;9.72;100.00;98014.75;4980981;28;20456;-70
2021/09/18 06:21:42;;;;;;;7.43;6.83;;;;;;;9.77;100.00;98013.31;4999853;28;20214;-70
2021/09/18 06:24:11;;;;;;;7.17;6.57;;;;;;;9.87;100.00;98022.94;4990548;28;20216;-71
2021/09/18 06:26:40;;;;;;;7.53;6.93;;;;;;;9.99;100.00;98019.84;4960069;28;20217;-70
2021/09/18 06:29:08;;;;;;;8.03;7.33;;;;;;;10.14;100.00;98022.72;4976179;28;20255;-70
2021/09/18 06:31:36;;;;;;;7.03;6.50;;;;;;;10.12;100.00;98024.69;4994253;28;20215;-70
2021/09/18 06:34:05;;;;;;;7.40;6.90;;;;;;;10.18;100.00;98025.03;4988694;28;20219;-69
2021/09/18 06:36:34;;;;;;;10.00;7.63;;;;;;;10.33;100.00;98023.41;4992167;28;20806;-68
2021/09/18 06:39:03;;;;;;;8.57;7.87;;;;;;;10.40;100.00;98021.00;5003950;28;20533;-69
2021/09/18 06:41:31;;;;;;;7.57;6.87;;;;;;;10.50;100.00;98029.59;4968260;28;20219;-68
2021/09/18 06:43:58;;;;;;;8.50;7.67;;;;;;;10.55;100.00;98026.50;4984435;28;20225;-69
2021/09/18 06:46:26;;;;;;;8.60;7.80;;;;;;;10.81;100.00;98030.84;5001072;28;20478;-72
2021/09/18 06:48:55;;;;;;;8.93;8.23;;;;;;;10.96;100.00;98030.97;4998433;28;20240;-68
2021/09/18 06:51:23;;;;;;;10.03;8.40;;;;;;;11.00;100.00;98033.16;4989875;28;20209;-70
2021/09/18 06:53:53;;;;;;;9.77;8.77;;;;;;;10.95;100.00;98031.97;5003332;28;20276;-70
2021/09/18 06:56:21;;;;;;;8.67;7.97;;;;;;;10.83;100.00;98029.66;4969687;28;21648;-70
2021/09/18 06:58:48;;;;;;;31.63;10.33;;;;;;;10.89;100.00;98033.47;4963831;28;20247;-70
2021/09/18 07:01:16;;;;;;;21.40;8.87;;;;;;;11.04;100.00;98027.50;4998576;28;20669;-71
2021/09/18 07:03:45;;;;;;;51.73;12.47;;;;;;;11.09;100.00;98028.69;4997319;28;20214;-72
2021/09/18 07:06:13;;;;;;;8.60;7.77;;;;;;;11.21;100.00;98025.69;4983926;28;20432;-70
2021/09/18 07:08:40;;;;;;;9.77;8.87;;;;;;;11.36;100.00;98031.94;4989542;28;20334;-70
2021/09/18 07:11:10;;;;;;;8.97;8.27;;;;;;;11.47;100.00;98029.97;4998914;28;20212;-70
2021/09/18 07:13:38;;;;;;;61.67;14.67;;;;;;;11.50;100.00;98021.66;4989358;28;20534;-71
2021/09/18 07:16:06;;;;;;;10.07;9.07;;;;;;;11.36;100.00;98028.47;4965867;28;20213;-70
2021/09/18 07:18:34;;;;;;;10.30;9.30;;;;;;;11.43;100.00;98029.47;5005419;28;20258;-69
2021/09/18 07:21:02;;;;;;;10.20;9.20;;;;;;;11.53;100.00;98024.78;4984500;28;20212;-69
2021/09/18 07:23:30;;;;;;;10.13;9.33;;;;;;;11.43;100.00;98034.75;5001196;28;20223;-68
2021/09/18 07:25:58;;;;;;;31.00;12.07;;;;;;;11.46;100.00;98029.13;5001345;28;20229;-69
2021/09/18 07:28:29;;;;;;;54.87;14.20;;;;;;;11.69;100.00;98028.41;4998996;28;20232;-70
2021/09/18 07:30:57;;;;;;;11.50;10.40;;;;;;;11.88;100.00;98028.00;4952562;28;20534;-70
2021/09/18 07:33:27;;;;;;;10.30;9.47;;;;;;;12.14;100.00;98037.56;4998649;28;20228;-68
2021/09/18 07:35:58;;;;;;;10.07;9.03;;;;;;;12.44;100.00;98034.25;4997347;28;20392;-70
2021/09/18 07:38:26;;;;;;;10.67;9.67;;;;;;;12.37;100.00;98035.97;4997282;28;20229;-68
2021/09/18 07:40:55;;;;;;;10.97;10.10;;;;;;;12.68;100.00;98033.28;4996922;28;20205;-69
2021/09/18 07:43:23;;;;;;;11.97;10.87;;;;;;;12.73;100.00;98036.25;5007155;28;20204;-68
2021/09/18 07:45:52;;;;;;;16.53;10.33;;;;;;;12.83;100.00;98041.31;4972890;28;20332;-70
2021/09/18 07:48:20;;;;;;;11.00;10.00;;;;;;;12.94;100.00;98040.09;5002136;28;20379;-69
2021/09/18 07:50:48;;;;;;;11.83;10.83;;;;;;;12.91;100.00;98040.44;4998951;28;20870;-69
2021/09/18 07:53:16;;;;;;;12.57;11.50;;;;;;;13.30;100.00;98042.13;4997823;28;20213;-70
2021/09/18 07:55:44;;;;;;;13.17;10.70;;;;;;;13.40;100.00;98044.53;4995041;28;20327;-70
2021/09/18 07:58:14;;;;;;;12.67;11.47;;;;;;;13.55;100.00;98036.59;4996197;28;20647;-69
2021/09/18 08:00:42;;;;;;;13.20;12.00;;;;;;;13.49;100.00;98033.81;4966652;28;20681;-70
2021/09/18 08:03:11;;;;;;;17.50;13.33;;;;;;;13.44;100.00;98039.69;5002426;28;20251;-69
2021/09/18 08:05:40;;;;;;;13.73;12.43;;;;;;;13.77;100.00;98035.88;4997578;28;20584;-69
2021/09/18 08:08:08;;;;;;;14.93;13.43;;;;;;;14.01;100.00;98037.41;5005914;28;20233;-69
2021/09/18 08:10:36;;;;;;;15.13;13.57;;;;;;;13.90;100.00;98041.38;4998354;28;20204;-69
2021/09/18 08:13:04;;;;;;;17.97;14.10;;;;;;;13.92;100.00;98033.22;4994632;28;20255;-69
2021/09/18 08:15:31;;;;;;;12.90;11.80;;;;;;;14.14;100.00;98031.44;4996797;28;20209;-69
2021/09/18 08:18:00;;;;;;;14.20;12.93;;;;;;;14.38;100.00;98040.09;4967512;28;20229;-70
2021/09/18 08:20:29;;;;;;;12.50;11.43;;;;;;;14.44;100.00;98029.53;4990996;28;20638;-69
2021/09/18 08:22:57;;;;;;;13.13;11.93;;;;;;;14.54;100.00;98039.06;5000060;28;20216;-69
2021/09/18 08:25:25;;;;;;;12.83;11.63;;;;;;;14.67;100.00;98031.22;4998409;28;20224;-68
2021/09/18 08:27:53;;;;;;;13.63;12.43;;;;;;;14.97;100.00;98040.97;4998817;28;20545;-70
2021/09/18 08:30:23;;;;;;;12.83;11.57;;;;;;;14.94;100.00;98039.50;4989170;28;20231;-69
2021/09/18 08:32:51;;;;;;;10.93;10.03;;;;;;;15.13;100.00;98042.53;4972017;28;20331;-70
2021/09/18 08:35:19;;;;;;;12.73;11.63;;;;;;;14.98;100.00;98038.13;4997925;28;20205;-69
2021/09/18 08:37:48;;;;;;;14.53;13.03;;;;;;;15.14;100.00;98036.19;4997896;28;20743;-69
2021/09/18 08:40:16;;;;;;;13.03;11.83;;;;;;;15.32;100.00;98039.19;4999355;28;20220;-69
2021/09/18 08:42:44;;;;;;;11.70;10.73;;;;;;;15.50;100.00;98040.56;4995093;28;20617;-70
2021/09/18 08:45:13;;;;;;;13.40;12.10;;;;;;;15.49;100.00;98022.91;5001225;28;20540;-70
2021/09/18 08:47:42;;;;;;;12.53;11.33;;;;;;;15.43;100.00;98037.84;4964786;28;20766;-70
2021/09/18 08:50:14;;;;;;;13.40;12.10;;;;;;;15.70;100.00;98032.69;5003538;28;20205;-70
2021/09/18 08:52:43;;;;;;;14.40;13.10;;;;;;;15.67;100.00;98029.56;4997599;28;20394;-71
2021/09/18 08:55:12;;;;;;;14.63;12.90;;;;;;;15.63;100.00;98038.00;4998856;28;20593;-69
2021/09/18 08:57:41;;;;;;;13.17;11.97;;;;;;;15.60;100.00;98041.06;4993127;28;20454;-69
2021/09/18 09:00:47;;;;;;;12.53;11.40;;;;;;;15.68;100.00;98031.22;4993657;28;20209;-70
2021/09/18 09:03:20;;;;;;;13.37;12.17;;;;;;;15.91;100.00;98033.69;4969246;28;20758;-69
2021/09/18 09:05:48;;;;;;;14.00;12.70;;;;;;;15.86;100.00;98030.72;5000436;28;20309;-70
2021/09/18 09:08:17;;;;;;;14.00;12.60;;;;;;;15.95;100.00;98034.09;5001427;28;20262;-70
2021/09/18 09:10:47;;;;;;;12.83;11.63;;;;;;;16.23;100.00;98031.34;4962443;28;20225;-69
2021/09/18 09:13:17;;;;;;;12.03;10.93;;;;;;;16.32;100.00;98026.66;5005350;28;20205;-69
2021/09/18 09:15:45;;;;;;;12.93;11.83;;;;;;;16.47;100.00;98021.94;4997666;28;20220;-70
2021/09/18 09:18:21;;;;;;;13.00;11.70;;;;;;;16.65;100.00;98023.25;4994667;28;20441;-70
2021/09/18 09:21:09;;;;;;;13.53;12.13;;;;;;;16.65;100.00;98025.91;4984156;28;20291;-69
2021/09/18 09:23:37;;;;;;;14.00;12.67;;;;;;;16.60;100.00;98031.06;4991798;28;20266;-69
2021/09/18 09:26:07;;;;;;;14.80;13.30;;;;;;;16.71;100.00;98019.75;4961481;28;20479;-69
2021/09/18 09:28:37;;;;;;;15.37;13.97;;;;;;;16.82;100.00;98022.84;4995901;28;20229;-70
2021/09/18 09:31:14;;;;;;;16.17;14.40;;;;;;;17.14;100.00;98020.44;4999128;28;20446;-70
2021/09/18 09:33:58;;;;;;;15.57;13.97;;;;;;;17.04;100.00;98028.88;4993270;28;20662;-70
2021/09/18 09:36:26;;;;;;;15.73;14.23;;;;;;;17.02;100.00;98026.41;4981769;28;20293;-71
2021/09/18 09:38:55;;;;;;;18.37;16.57;;;;;;;17.17;100.00;98028.06;4988026;28;20256;-69
2021/09/18 09:41:36;;;;;;;17.03;15.20;;;;;;;17.26;100.00;98031.38;4972197;28;20216;-70
2021/09/18 09:44:05;;;;;;;16.47;14.87;;;;;;;17.26;100.00;98029.53;4993803;28;20353;-70
2021/09/18 09:46:33;;;;;;;18.53;16.73;;;;;;;17.50;100.00;98029.91;5001471;28;20239;-70
2021/09/18 09:49:09;;;;;;;17.07;15.47;;;;;;;17.65;100.00;98025.16;4994892;28;20764;-70
2021/09/18 09:51:37;;;;;;;16.60;14.83;;;;;;;18.00;100.00;98021.34;4997604;28;20973;-70
2021/09/18 09:54:23;;;;;;;16.27;14.77;;;;;;;18.11;100.00;98027.94;4984079;28;20971;-69
2021/09/18 09:57:10;;;;;;;16.80;15.20;;;;;;;18.09;100.00;98027.34;4964901;28;20842;-69
2021/09/18 09:59:39;;;;;;;18.13;16.27;;;;;;;18.31;100.00;98024.34;5000550;28;20724;-69
2021/09/18 10:02:08;;;;;;;17.73;15.93;;;;;;;18.12;100.00;98026.06;4996502;28;20208;-70
2021/09/18 10:04:37;;;;;;;19.23;17.33;;;;;;;18.12;100.00;98026.91;4998956;28;20459;-70
2021/09/18 10:07:08;;;;;;;19.53;17.17;;;;;;;17.97;100.00;98024.44;4993846;28;20481;-70
2021/09/18 10:09:38;;;;;;;19.53;17.60;;;;;;;18.13;100.00;98020.50;4977465;28;20351;-68
2021/09/18 10:12:07;;;;;;;19.03;17.33;;;;;;;18.31;100.00;98017.13;4975255;28;20296;-70
2021/09/18 10:14:36;;;;;;;17.50;15.87;;;;;;;18.54;100.00;98018.44;5001802;28;20204;-70
2021/09/18 10:17:04;;;;;;;18.67;16.87;;;;;;;18.80;100.00;98014.78;4991798;28;20677;-70
2021/09/18 10:25:05;;;;;;;18.30;16.60;;;;;;;18.70;100.00;98019.78;4982023;28;20235;-70
2021/09/18 10:27:34;;;;;;;18.00;16.20;;;;;;;18.93;100.00;98016.53;4966416;28;20224;-70
2021/09/18 10:30:03;;;;;;;17.43;15.80;;;;;;;18.74;100.00;98015.63;4994004;28;20380;-68
2021/09/18 10:32:45;;;;;;;18.50;16.87;;;;;;;18.40;100.00;98019.56;5000750;28;20200;-70
2021/09/18 10:35:15;;;;;;;17.93;16.13;;;;;;;18.52;100.00;98009.78;4990756;28;20227;-70
2021/09/18 10:37:43;;;;;;;17.23;15.70;;;;;;;18.39;100.00;98008.03;4990798;28;20224;-70
2021/09/18 10:40:13;;;;;;;17.97;16.17;;;;;;;18.39;100.00;98002.66;4980961;28;20783;-70
2021/09/18 10:42:44;;;;;;;15.90;14.40;;;;;;;19.22;100.00;98008.91;4969394;28;20220;-70
2021/09/18 10:45:14;;;;;;;14.83;13.30;;;;;;;19.30;100.00;98009.69;4997441;28;20417;-69
2021/09/18 10:47:47;;;;;;;15.60;14.10;;;;;;;19.43;100.00;98009.56;4997432;28;21203;-69
2021/09/18 10:50:37;;;;;;;17.27;15.57;;;;;;;18.80;100.00;98013.97;4998744;28;20226;-70
2021/09/18 10:53:08;;;;;;;17.80;15.63;;;;;;;18.39;100.00;98007.19;4990666;28;20217;-70
2021/09/18 10:55:53;;;;;;;17.50;15.83;;;;;;;18.59;100.00;98007.91;4993525;28;20207;-70
2021/09/18 10:58:23;;;;;;;16.63;14.93;;;;;;;18.70;100.00;98005.56;4952698;28;20239;-68
2021/09/18 11:00:57;;;;;;;15.20;13.80;;;;;;;19.00;100.00;98000.41;4978631;28;20208;-70
2021/09/18 11:03:43;;;;;;;18.87;17.17;;;;;;;19.43;100.00;97998.81;4977988;28;20208;-70
2021/09/18 11:06:38;;;;;;;15.40;13.90;;;;;;;19.62;100.00;98004.22;4985388;28;20319;-71
2021/09/18 11:09:07;;;;;;;15.70;14.20;;;;;;;19.29;100.00;97998.13;4982346;28;20369;-69
2021/09/18 11:11:35;;;;;;;15.33;13.93;;;;;;;19.47;100.00;98004.56;4983204;28;20312;-68
2021/09/18 11:14:05;;;;;;;15.07;13.77;;;;;;;19.94;100.00;97999.56;4962587;28;20229;-69
2021/09/18 11:16:35;;;;;;;15.63;14.20;;;;;;;20.12;100.00;97994.41;4995140;28;20721;-69
2021/09/18 11:19:08;;;;;;;13.33;12.03;;;;;;;20.60;100.00;97992.72;4964605;28;20357;-70
2021/09/18 11:21:38;;;;;;;13.50;12.33;;;;;;;20.52;100.00;97991.19;4988393;28;20300;-69
2021/09/18 11:24:22;;;;;;;13.47;12.17;;;;;;;20.39;100.00;97990.28;4993394;28;20845;-69
2021/09/18 11:26:51;;;;;;;13.97;12.63;;;;;;;20.15;100.00;97991.25;4992741;28;20220;-69
2021/09/18 11:29:33;;;;;;;11.53;10.53;;;;;;;19.61;100.00;97981.91;4996036;28;20228;-70
2021/09/18 11:32:11;;;;;;;12.20;11.20;;;;;;;18.95;100.00;97984.97;4994401;28;20252;-69
2021/09/18 11:34:44;;;;;;;12.10;11.10;;;;;;;18.85;100.00;97995.34;4963421;28;20227;-70
2021/09/18 11:37:24;;;;;;;12.10;10.97;;;;;;;18.85;100.00;97986.47;4996446;28;20532;-70
2021/09/18 11:39:55;;;;;;;12.00;11.00;;;;;;;19.30;100.00;97986.34;4992725;28;20224;-70